This is the latest recevied weather packets stored in our database for station/object KB2KMM. If no packets are shown the sender has not sent any weather packets the latest 1 day(s).
| Time | Temp. | Humidity | Pressure | Rain* | Wind** | Luminosity | Snow |
|---|---|---|---|---|---|---|---|
| 1836274680 | 19.44° C | 60% | 1019 hPa | 0 mm | 0.89 m/s, 15° | - | - |
| 1836274530 | 19.44° C | 57% | 1019.3 hPa | 0 mm | 0.45 m/s, 32° | - | - |
| 1836274386 | 19.44° C | 61% | 1019 hPa | 0 mm | 0.89 m/s, 12° | - | - |
| 1836274236 | 19.44° C | 58% | 1019.1 hPa | 0 mm | 0.89 m/s, 36° | - | - |
| 1836274080 | 19.44° C | 63% | 1019 hPa | 0 mm | 0.45 m/s, 16° | - | - |
| 1778040905 | 14.44° C | 94% | 1011.9 hPa | 0 mm | 4.02 m/s, 295° | - | - |
| 1778040605 | 14.44° C | 94% | 1012 hPa | 0 mm | 4.02 m/s, 299° | - | - |
| 1778040305 | 14.44° C | 93% | 1012 hPa | 0 mm | 2.68 m/s, 308° | - | - |
| 1778040005 | 14.44° C | 93% | 1012.1 hPa | 0 mm | 1.79 m/s, 288° | - | - |
| 1778039706 | 14.44° C | 93% | 1012 hPa | 0 mm | 2.24 m/s, 306° | - | - |
| 1778039405 | 14.44° C | 93% | 1011.9 hPa | 0 mm | 4.02 m/s, 296° | - | - |
| 1778039105 | 14.44° C | 93% | 1011.9 hPa | 0 mm | 1.79 m/s, 261° | - | - |
| 1778038806 | 14.44° C | 93% | 1011.9 hPa | 0 mm | 4.02 m/s, 294° | - | - |
| 1778038505 | 14.44° C | 93% | 1012 hPa | 0 mm | 2.68 m/s, 302° | - | - |
| 1778038205 | 14.44° C | 93% | 1011.9 hPa | 0 mm | 1.34 m/s, 303° | - | - |
| 1778037905 | 14.44° C | 93% | 1011.9 hPa | 0 mm | 2.24 m/s, 303° | - | - |
| 1778037606 | 14.44° C | 93% | 1011.9 hPa | 0 mm | 1.34 m/s, 310° | - | - |
| 1778037305 | 14.44° C | 93% | 1011.9 hPa | 0 mm | 3.13 m/s, 288° | - | - |
| 1778037006 | 14.44° C | 93% | 1011.9 hPa | 0 mm | 2.24 m/s, 301° | - | - |
| 1778036705 | 14.44° C | 93% | 1012 hPa | 0 mm | 3.13 m/s, 293° | - | - |
| 1778036405 | 14.44° C | 93% | 1012 hPa | 0 mm | 2.68 m/s, 302° | - | - |
| 1778036105 | 14.44° C | 93% | 1012.1 hPa | 0 mm | 1.34 m/s, 305° | - | - |
| 1778035805 | 14.44° C | 93% | 1012.1 hPa | 0 mm | 2.24 m/s, 297° | - | - |
| 1778035505 | 14.44° C | 93% | 1012 hPa | 0 mm | 2.68 m/s, 304° | - | - |
| 1778035205 | 14.44° C | 93% | 1012 hPa | 0 mm | 2.24 m/s, 296° | - | - |
* Rain latest hour (hover to see other rain measurements)
** Current wind speed in m/s (hover to see current wind gust speed)